Time;durP1;ratioP1;P1;durP2;ratioP2;P2;SDS_P1;SDS_P2;PMS_P1;PMS_P2;Temp;Humidity;BMP_temperature;BMP_pressure;BME280_temperature;BME280_humidity;BME280_pressure;Samples;Min_cycle;Max_cycle;Signal;HPM_P1;HPM_P2
2022/01/15 00:01:41;;;;;;;4.82;2.40;;;;;;;;;;5044078;28;20037;-76
2022/01/15 00:04:07;;;;;;;5.32;2.63;;;;;;;;;;5059599;28;20500;-76
2022/01/15 00:06:33;;;;;;;4.97;1.80;;;;;;;;;;5044741;28;20033;-75
2022/01/15 00:08:59;;;;;;;5.13;2.60;;;;;;;;;;5060378;28;20120;-76
2022/01/15 00:11:25;;;;;;;5.50;2.10;;;;;;;;;;5059236;28;20124;-75
2022/01/15 00:13:56;;;;;;;5.38;2.58;;;;;;;;;;5044423;28;20465;-76
2022/01/15 00:16:32;;;;;;;6.65;2.67;;;;;;;;;;5060868;28;20051;-75
2022/01/15 00:19:05;;;;;;;10.30;3.67;;;;;;;;;;5060095;28;20511;-76
2022/01/15 00:21:31;;;;;;;5.95;2.88;;;;;;;;;;5042217;28;20118;-75
2022/01/15 00:23:57;;;;;;;4.80;2.40;;;;;;;;;;5043554;28;20047;-76
2022/01/15 00:26:23;;;;;;;5.15;2.78;;;;;;;;;;5044189;28;20028;-75
2022/01/15 00:28:49;;;;;;;5.72;2.28;;;;;;;;;;5042280;28;20044;-75
2022/01/15 00:31:15;;;;;;;9.95;3.50;;;;;;;;;;5043990;28;20037;-76
2022/01/15 00:33:41;;;;;;;7.65;3.30;;;;;;;;;;5043548;28;20094;-76
2022/01/15 00:36:07;;;;;;;8.02;3.10;;;;;;;;;;5058982;28;20072;-76
2022/01/15 00:38:33;;;;;;;6.93;3.03;;;;;;;;;;5044110;28;20078;-76
2022/01/15 00:40:59;;;;;;;9.23;3.03;;;;;;;;;;5059637;28;20481;-76
2022/01/15 00:43:25;;;;;;;8.13;3.17;;;;;;;;;;5042127;28;20123;-76
2022/01/15 00:45:51;;;;;;;6.60;3.17;;;;;;;;;;5060497;28;20037;-76
2022/01/15 00:48:17;;;;;;;21.27;3.97;;;;;;;;;;5058008;28;20399;-76
2022/01/15 00:50:43;;;;;;;12.48;3.47;;;;;;;;;;5042450;28;20043;-75
2022/01/15 00:53:09;;;;;;;9.27;3.30;;;;;;;;;;5043517;28;20117;-76
2022/01/15 00:55:35;;;;;;;7.88;3.40;;;;;;;;;;5042486;28;20123;-76
2022/01/15 00:58:01;;;;;;;9.65;3.15;;;;;;;;;;5058357;28;20072;-76
2022/01/15 01:00:27;;;;;;;14.30;3.90;;;;;;;;;;5043485;28;20452;-76
2022/01/15 01:02:54;;;;;;;8.02;3.70;;;;;;;;;;5058422;28;20106;-76
2022/01/15 01:05:20;;;;;;;7.50;3.08;;;;;;;;;;5042888;28;20047;-75
2022/01/15 01:07:46;;;;;;;7.70;3.53;;;;;;;;;;5060422;28;20039;-76
2022/01/15 01:13:15;;;;;;;7.55;3.30;;;;;;;;;;5058847;28;20403;-76
2022/01/15 01:23:55;;;;;;;7.68;3.20;;;;;;;;;;5059351;28;20493;-76
2022/01/15 01:26:29;;;;;;;7.57;3.33;;;;;;;;;;5064554;28;20040;-76
2022/01/15 01:29:04;;;;;;;7.72;3.72;;;;;;;;;;5053303;28;20449;-76
2022/01/15 01:31:50;;;;;;;8.02;3.17;;;;;;;;;;5070287;28;20127;-76
2022/01/15 01:34:17;;;;;;;8.63;3.60;;;;;;;;;;5053274;28;20044;-76
2022/01/15 01:36:57;;;;;;;8.48;4.00;;;;;;;;;;5053159;28;20450;-76
2022/01/15 01:39:31;;;;;;;8.13;3.78;;;;;;;;;;5036576;28;20443;-76
2022/01/15 01:42:13;;;;;;;7.10;3.60;;;;;;;;;;5033034;28;20128;-76
2022/01/15 01:44:41;;;;;;;7.10;3.85;;;;;;;;;;5049984;28;20037;-76
2022/01/15 01:47:17;;;;;;;7.85;3.25;;;;;;;;;;5033460;28;20515;-76
2022/01/15 01:49:43;;;;;;;8.27;3.58;;;;;;;;;;5033479;28;20076;-76
2022/01/15 01:52:10;;;;;;;7.28;3.67;;;;;;;;;;5049740;28;20544;-76
2022/01/15 01:54:36;;;;;;;6.05;2.92;;;;;;;;;;5033471;28;20087;-76
2022/01/15 01:57:02;;;;;;;10.02;3.72;;;;;;;;;;5049691;28;20037;-76
2022/01/15 01:59:28;;;;;;;7.28;3.45;;;;;;;;;;5051048;28;20140;-76
2022/01/15 02:01:54;;;;;;;10.32;4.65;;;;;;;;;;5036766;28;20616;-76
2022/01/15 02:04:22;;;;;;;8.77;3.30;;;;;;;;;;5053703;28;20090;-76
2022/01/15 02:06:48;;;;;;;11.20;3.85;;;;;;;;;;5036897;28;20065;-76
2022/01/15 02:09:14;;;;;;;8.82;3.70;;;;;;;;;;5049168;28;20039;-76
2022/01/15 02:11:42;;;;;;;9.73;3.85;;;;;;;;;;5071671;28;20246;-76
2022/01/15 02:14:08;;;;;;;7.78;3.63;;;;;;;;;;5073188;28;20040;-76
2022/01/15 02:16:34;;;;;;;7.07;3.70;;;;;;;;;;5073038;28;20158;-76
2022/01/15 02:19:00;;;;;;;11.05;3.65;;;;;;;;;;5072816;28;20123;-76
2022/01/15 02:23:53;;;;;;;8.43;3.97;;;;;;;;;;5073231;28;20131;-76
2022/01/15 02:26:26;;;;;;;10.38;4.28;;;;;;;;;;5073083;28;20094;-76
2022/01/15 02:28:59;;;;;;;9.48;4.18;;;;;;;;;;5073093;28;20043;-76
2022/01/15 02:31:26;;;;;;;9.85;4.60;;;;;;;;;;5073216;28;20059;-76
2022/01/15 02:33:53;;;;;;;8.43;4.13;;;;;;;;;;5072884;28;20048;-76
2022/01/15 02:36:23;;;;;;;8.38;3.97;;;;;;;;;;5056109;28;20051;-76
2022/01/15 02:38:50;;;;;;;11.77;4.20;;;;;;;;;;5072758;28;20086;-76
2022/01/15 02:41:24;;;;;;;12.07;4.25;;;;;;;;;;5050426;28;20295;-76
2022/01/15 02:43:50;;;;;;;9.20;3.95;;;;;;;;;;5052708;28;20413;-76
2022/01/15 02:46:21;;;;;;;10.07;4.07;;;;;;;;;;5035958;28;20485;-75
2022/01/15 02:48:47;;;;;;;8.88;4.07;;;;;;;;;;5052677;28;20093;-75
2022/01/15 02:51:14;;;;;;;10.05;4.18;;;;;;;;;;5052698;28;20052;-75
2022/01/15 02:53:41;;;;;;;11.52;3.72;;;;;;;;;;5052478;28;20094;-75
2022/01/15 02:56:08;;;;;;;8.60;3.90;;;;;;;;;;5052504;28;20041;-76
2022/01/15 02:58:34;;;;;;;10.13;4.18;;;;;;;;;;5035624;28;20064;-75
2022/01/15 03:01:00;;;;;;;8.40;3.35;;;;;;;;;;5035721;28;20045;-76
2022/01/15 03:03:26;;;;;;;9.52;3.22;;;;;;;;;;5052246;28;20120;-75
2022/01/15 03:05:52;;;;;;;10.18;3.50;;;;;;;;;;5035788;28;20072;-75
2022/01/15 03:08:18;;;;;;;12.20;4.00;;;;;;;;;;5052434;28;20041;-75
2022/01/15 03:10:44;;;;;;;10.30;4.57;;;;;;;;;;5034462;28;20047;-75
2022/01/15 03:13:12;;;;;;;11.98;3.83;;;;;;;;;;5054989;28;20493;-75
2022/01/15 03:15:38;;;;;;;7.82;3.78;;;;;;;;;;5055267;28;20086;-75
2022/01/15 03:18:04;;;;;;;10.95;4.05;;;;;;;;;;5055019;28;20045;-75
2022/01/15 03:20:31;;;;;;;11.07;4.15;;;;;;;;;;5072160;28;20036;-75
2022/01/15 03:22:57;;;;;;;15.45;4.30;;;;;;;;;;5071887;28;20044;-75
2022/01/15 03:25:23;;;;;;;9.48;3.70;;;;;;;;;;5055205;28;20504;-75
2022/01/15 03:27:49;;;;;;;7.90;3.80;;;;;;;;;;5055228;28;20071;-75
2022/01/15 03:30:15;;;;;;;9.43;3.63;;;;;;;;;;5071728;28;20041;-75
2022/01/15 03:32:43;;;;;;;12.13;4.30;;;;;;;;;;5072089;28;20120;-76
2022/01/15 03:35:13;;;;;;;10.13;3.83;;;;;;;;;;5071747;28;20089;-75
2022/01/15 03:37:39;;;;;;;9.20;3.88;;;;;;;;;;5055137;28;20033;-75
2022/01/15 03:40:07;;;;;;;8.23;3.35;;;;;;;;;;5054779;28;20446;-75
2022/01/15 03:42:33;;;;;;;8.52;3.80;;;;;;;;;;5053406;28;20517;-75
2022/01/15 03:44:59;;;;;;;11.80;4.13;;;;;;;;;;5071351;28;20128;-75
2022/01/15 03:47:25;;;;;;;10.10;3.53;;;;;;;;;;5071432;28;20037;-75
2022/01/15 03:49:51;;;;;;;7.30;3.22;;;;;;;;;;5071463;28;20396;-75
2022/01/15 03:52:17;;;;;;;10.15;3.97;;;;;;;;;;5054922;28;20048;-75
2022/01/15 03:54:43;;;;;;;4.95;2.40;;;;;;;;;;5054683;28;20051;-75
2022/01/15 03:57:09;;;;;;;5.20;2.35;;;;;;;;;;5054451;28;20048;-75
2022/01/15 03:59:35;;;;;;;5.93;2.58;;;;;;;;;;5054620;28;20049;-75
2022/01/15 04:02:01;;;;;;;4.82;2.50;;;;;;;;;;5071169;28;20079;-75
2022/01/15 04:04:27;;;;;;;5.65;2.90;;;;;;;;;;5054583;28;20036;-75
2022/01/15 04:06:53;;;;;;;4.88;2.15;;;;;;;;;;5071293;28;20044;-75
2022/01/15 04:09:19;;;;;;;5.65;2.20;;;;;;;;;;5071005;28;20071;-75
2022/01/15 04:11:46;;;;;;;3.67;1.77;;;;;;;;;;5043881;28;20115;-75
2022/01/15 04:14:12;;;;;;;3.95;1.98;;;;;;;;;;5034132;28;20051;-75
2022/01/15 04:16:38;;;;;;;4.32;2.35;;;;;;;;;;5050780;28;20041;-75
2022/01/15 04:19:07;;;;;;;4.72;2.10;;;;;;;;;;5050590;28;20044;-75
2022/01/15 04:21:33;;;;;;;4.50;2.13;;;;;;;;;;5050221;28;20051;-75
2022/01/15 04:23:59;;;;;;;5.43;2.00;;;;;;;;;;5034118;28;20124;-75
2022/01/15 04:26:26;;;;;;;3.92;1.90;;;;;;;;;;5050872;28;20155;-75
2022/01/15 04:28:53;;;;;;;6.32;1.55;;;;;;;;;;5050670;28;20088;-75
2022/01/15 04:31:19;;;;;;;5.25;2.25;;;;;;;;;;5051057;28;20053;-75
2022/01/15 04:33:45;;;;;;;4.07;1.73;;;;;;;;;;5033956;28;20060;-75
2022/01/15 04:36:11;;;;;;;3.88;1.70;;;;;;;;;;5034386;28;20044;-75
2022/01/15 04:38:38;;;;;;;7.75;2.67;;;;;;;;;;5034076;28;20135;-75
2022/01/15 04:41:08;;;;;;;4.78;2.45;;;;;;;;;;5052014;28;20704;-75
2022/01/15 04:43:34;;;;;;;7.95;3.00;;;;;;;;;;5053926;28;20036;-75
2022/01/15 04:46:01;;;;;;;4.72;2.40;;;;;;;;;;5053705;28;20040;-75
2022/01/15 04:48:27;;;;;;;6.15;2.13;;;;;;;;;;5070364;28;20068;-75
2022/01/15 04:50:53;;;;;;;5.72;2.30;;;;;;;;;;5070641;28;20140;-75
2022/01/15 04:53:19;;;;;;;7.05;2.63;;;;;;;;;;5070415;28;20078;-75
2022/01/15 04:55:45;;;;;;;7.03;3.25;;;;;;;;;;5070595;28;20044;-75
2022/01/15 04:58:11;;;;;;;7.38;2.47;;;;;;;;;;5070599;28;20051;-75
2022/01/15 05:00:37;;;;;;;8.02;2.97;;;;;;;;;;5069877;28;20044;-75
2022/01/15 05:03:03;;;;;;;7.18;2.70;;;;;;;;;;5070286;28;20047;-75
2022/01/15 05:05:30;;;;;;;6.80;3.13;;;;;;;;;;5053522;28;20086;-75
2022/01/15 05:07:56;;;;;;;9.75;3.55;;;;;;;;;;5070125;28;20136;-75
2022/01/15 05:10:23;;;;;;;8.60;2.55;;;;;;;;;;5070607;28;20044;-75
2022/01/15 05:12:50;;;;;;;5.32;2.42;;;;;;;;;;5033591;28;20048;-75
2022/01/15 05:15:18;;;;;;;6.03;2.45;;;;;;;;;;5033104;28;20040;-75
2022/01/15 05:17:44;;;;;;;6.55;2.88;;;;;;;;;;5049990;28;20040;-75
2022/01/15 05:20:11;;;;;;;7.80;3.40;;;;;;;;;;5049871;28;20044;-75
2022/01/15 05:22:37;;;;;;;7.47;2.60;;;;;;;;;;5049764;28;20170;-75
2022/01/15 05:25:04;;;;;;;8.38;2.67;;;;;;;;;;5049926;28;20063;-75
2022/01/15 05:27:30;;;;;;;8.90;2.88;;;;;;;;;;5049637;28;20079;-75
2022/01/15 05:29:56;;;;;;;8.13;2.95;;;;;;;;;;5032951;28;20037;-75
2022/01/15 05:32:23;;;;;;;5.18;2.35;;;;;;;;;;5033145;28;20595;-75
2022/01/15 05:34:50;;;;;;;8.10;3.05;;;;;;;;;;5053651;28;20098;-75
2022/01/15 05:37:16;;;;;;;5.63;2.58;;;;;;;;;;5053779;28;20048;-75
2022/01/15 05:39:42;;;;;;;6.75;2.95;;;;;;;;;;5053797;28;20522;-75
2022/01/15 05:42:08;;;;;;;5.90;2.33;;;;;;;;;;5036710;28;20045;-75
2022/01/15 05:44:35;;;;;;;6.30;2.38;;;;;;;;;;5036922;28;20041;-75
2022/01/15 05:47:01;;;;;;;5.30;2.35;;;;;;;;;;5053592;28;20037;-75
2022/01/15 05:49:29;;;;;;;5.20;2.70;;;;;;;;;;5036733;28;20485;-75
2022/01/15 05:51:55;;;;;;;8.75;2.88;;;;;;;;;;5037085;28;20040;-75
2022/01/15 05:54:21;;;;;;;6.63;2.70;;;;;;;;;;5053297;28;20037;-75
2022/01/15 05:56:47;;;;;;;6.03;2.55;;;;;;;;;;5036541;28;20047;-75
2022/01/15 05:59:13;;;;;;;9.40;2.45;;;;;;;;;;5053231;28;20425;-75
2022/01/15 06:01:39;;;;;;;7.07;3.47;;;;;;;;;;5053125;28;20037;-75
2022/01/15 06:04:05;;;;;;;6.55;2.17;;;;;;;;;;5053131;28;20495;-75
2022/01/15 06:06:31;;;;;;;5.55;2.47;;;;;;;;;;5053138;28;20055;-75
2022/01/15 06:08:57;;;;;;;5.35;2.35;;;;;;;;;;5053374;28;20044;-75
2022/01/15 06:11:24;;;;;;;6.95;2.55;;;;;;;;;;5052993;28;20091;-75
2022/01/15 06:13:50;;;;;;;4.57;2.10;;;;;;;;;;5036223;28;20186;-75
2022/01/15 06:16:16;;;;;;;4.05;2.08;;;;;;;;;;5053068;28;20094;-74
2022/01/15 06:18:43;;;;;;;4.75;2.55;;;;;;;;;;5036221;28;20404;-75
2022/01/15 06:21:09;;;;;;;5.03;2.33;;;;;;;;;;5036208;28;20049;-75
2022/01/15 06:23:35;;;;;;;4.50;1.65;;;;;;;;;;5052769;28;20485;-75
2022/01/15 06:26:01;;;;;;;4.00;1.88;;;;;;;;;;5052765;28;20178;-75
2022/01/15 06:28:27;;;;;;;3.50;1.42;;;;;;;;;;5036156;28;20068;-75
2022/01/15 06:30:53;;;;;;;2.50;1.30;;;;;;;;;;5035934;28;20051;-75
2022/01/15 06:33:19;;;;;;;3.22;2.03;;;;;;;;;;5052483;28;20032;-75
2022/01/15 06:35:46;;;;;;;3.22;1.63;;;;;;;;;;5035737;28;20044;-75
2022/01/15 06:38:12;;;;;;;4.28;1.70;;;;;;;;;;5052774;28;20037;-75
2022/01/15 06:40:38;;;;;;;3.75;1.70;;;;;;;;;;5052455;28;20072;-75
2022/01/15 06:43:06;;;;;;;1.50;1.15;;;;;;;;;;5052393;28;20084;-75
2022/01/15 06:45:32;;;;;;;3.70;1.55;;;;;;;;;;5051585;28;20037;-75
2022/01/15 06:47:58;;;;;;;3.22;1.35;;;;;;;;;;5052137;28;20095;-75
2022/01/15 06:50:25;;;;;;;3.25;1.20;;;;;;;;;;5035741;28;20048;-75
2022/01/15 06:52:51;;;;;;;2.67;1.13;;;;;;;;;;5046291;28;20040;-75
2022/01/15 06:55:17;;;;;;;3.58;1.45;;;;;;;;;;5043487;28;20037;-75
2022/01/15 06:57:44;;;;;;;4.15;1.40;;;;;;;;;;5052362;28;20033;-75
2022/01/15 07:00:10;;;;;;;2.17;1.50;;;;;;;;;;5035298;28;20401;-75
2022/01/15 07:02:37;;;;;;;3.25;1.58;;;;;;;;;;5035200;28;20056;-75
2022/01/15 07:05:03;;;;;;;2.35;1.05;;;;;;;;;;5052185;28;20048;-75
2022/01/15 07:07:29;;;;;;;2.97;1.55;;;;;;;;;;5051875;28;20445;-75
2022/01/15 07:09:55;;;;;;;4.78;2.40;;;;;;;;;;5035348;28;20170;-75
2022/01/15 07:12:21;;;;;;;4.47;2.47;;;;;;;;;;5050197;28;20520;-75
2022/01/15 07:14:47;;;;;;;5.05;3.10;;;;;;;;;;5035021;28;20049;-75
2022/01/15 07:17:13;;;;;;;5.20;2.55;;;;;;;;;;5051521;28;20404;-75
2022/01/15 07:19:39;;;;;;;3.97;1.70;;;;;;;;;;5035424;28;20401;-75
2022/01/15 07:22:06;;;;;;;3.22;1.77;;;;;;;;;;5052814;28;20512;-76
2022/01/15 07:24:32;;;;;;;4.82;1.90;;;;;;;;;;5052919;28;20045;-76
2022/01/15 07:26:58;;;;;;;4.45;1.75;;;;;;;;;;5052457;28;20037;-76
2022/01/15 07:29:24;;;;;;;3.65;1.48;;;;;;;;;;5036497;28;20428;-76
2022/01/15 07:31:51;;;;;;;4.95;2.17;;;;;;;;;;5051732;28;20056;-76
2022/01/15 07:34:17;;;;;;;4.28;2.38;;;;;;;;;;5051807;28;20090;-76
2022/01/15 07:36:51;;;;;;;6.32;2.42;;;;;;;;;;5035424;28;20045;-76
2022/01/15 07:39:17;;;;;;;7.50;1.95;;;;;;;;;;5035516;28;20047;-76
2022/01/15 07:41:43;;;;;;;4.10;1.67;;;;;;;;;;5035201;28;20128;-76
2022/01/15 07:44:09;;;;;;;4.10;1.80;;;;;;;;;;5034945;28;20037;-76
2022/01/15 07:46:35;;;;;;;4.30;1.80;;;;;;;;;;5052049;28;20053;-78
2022/01/15 07:49:01;;;;;;;5.05;2.03;;;;;;;;;;5050044;28;20032;-77
2022/01/15 07:51:28;;;;;;;3.25;1.73;;;;;;;;;;5031562;28;20055;-77
2022/01/15 07:53:54;;;;;;;4.55;1.58;;;;;;;;;;5047713;28;20074;-77
2022/01/15 07:56:20;;;;;;;3.17;1.90;;;;;;;;;;5031385;28;20045;-77
2022/01/15 07:58:46;;;;;;;3.47;1.90;;;;;;;;;;5047838;28;20063;-77
2022/01/15 08:01:13;;;;;;;5.20;2.03;;;;;;;;;;5047961;28;20566;-77
2022/01/15 08:03:39;;;;;;;4.13;2.03;;;;;;;;;;5047825;28;20043;-77
2022/01/15 08:06:06;;;;;;;4.50;2.10;;;;;;;;;;5047405;28;20052;-77
2022/01/15 08:08:32;;;;;;;4.47;1.77;;;;;;;;;;5031243;28;20045;-77
2022/01/15 08:10:58;;;;;;;6.13;1.85;;;;;;;;;;5031011;28;20041;-77
2022/01/15 08:13:25;;;;;;;4.68;1.70;;;;;;;;;;5047751;28;20056;-77
2022/01/15 08:15:52;;;;;;;5.38;2.20;;;;;;;;;;5047376;28;20052;-77
2022/01/15 08:18:18;;;;;;;4.45;2.13;;;;;;;;;;5047108;28;20508;-77
2022/01/15 08:20:44;;;;;;;6.13;3.25;;;;;;;;;;5047373;28;20064;-77
2022/01/15 08:23:10;;;;;;;6.07;2.35;;;;;;;;;;5030624;28;20124;-76
2022/01/15 08:25:36;;;;;;;5.43;2.50;;;;;;;;;;5031240;28;20481;-77
2022/01/15 08:28:02;;;;;;;5.05;1.90;;;;;;;;;;5047226;28;20075;-77
2022/01/15 08:30:28;;;;;;;4.32;1.50;;;;;;;;;;5030444;28;20448;-77
2022/01/15 08:32:54;;;;;;;4.65;2.08;;;;;;;;;;5030623;28;20041;-77
2022/01/15 08:35:20;;;;;;;5.40;1.73;;;;;;;;;;5030559;28;20029;-77
2022/01/15 08:37:46;;;;;;;3.75;1.58;;;;;;;;;;5030495;28;20036;-77
2022/01/15 08:40:14;;;;;;;2.58;1.25;;;;;;;;;;5030555;28;20056;-77
2022/01/15 08:42:41;;;;;;;3.72;1.33;;;;;;;;;;5046776;28;20041;-77
2022/01/15 08:45:08;;;;;;;2.20;1.20;;;;;;;;;;5046989;28;20072;-77
2022/01/15 08:47:34;;;;;;;3.25;1.80;;;;;;;;;;5046912;28;20051;-77
2022/01/15 08:50:00;;;;;;;4.25;1.55;;;;;;;;;;5030297;28;20401;-77
2022/01/15 08:52:26;;;;;;;7.57;2.50;;;;;;;;;;5046962;28;20409;-77
2022/01/15 08:54:52;;;;;;;3.95;2.00;;;;;;;;;;5029935;28;20057;-77
2022/01/15 08:57:18;;;;;;;5.97;2.08;;;;;;;;;;5030188;28;20088;-77
2022/01/15 08:59:44;;;;;;;6.97;2.45;;;;;;;;;;5046468;28;20053;-77
2022/01/15 09:02:10;;;;;;;6.43;3.13;;;;;;;;;;5046468;28;20055;-78
2022/01/15 09:04:36;;;;;;;6.82;2.60;;;;;;;;;;5046843;28;20142;-77
2022/01/15 09:07:03;;;;;;;9.07;3.47;;;;;;;;;;5046166;28;20087;-77
2022/01/15 09:09:29;;;;;;;10.70;3.72;;;;;;;;;;5030081;28;20501;-77
2022/01/15 09:11:55;;;;;;;8.68;3.20;;;;;;;;;;5030697;28;20080;-77
2022/01/15 09:14:21;;;;;;;14.52;4.65;;;;;;;;;;5046645;28;20577;-77
2022/01/15 09:16:46;;;;;;;13.38;4.47;;;;;;;;;;5030147;28;20080;-77
2022/01/15 09:19:13;;;;;;;14.77;5.45;;;;;;;;;;5029588;28;20052;-77
2022/01/15 09:21:39;;;;;;;14.63;5.70;;;;;;;;;;5029939;28;20480;-77
2022/01/15 09:24:05;;;;;;;14.70;5.15;;;;;;;;;;5030571;28;20041;-77
2022/01/15 09:27:02;;;;;;;17.05;6.63;;;;;;;;;;5046280;28;20523;-77
2022/01/15 09:32:13;;;;;;;19.50;6.55;;;;;;;;;;5046318;28;20172;-78
2022/01/15 09:34:39;;;;;;;21.83;6.32;;;;;;;;;;5030020;28;20091;-77
2022/01/15 09:37:06;;;;;;;18.55;6.22;;;;;;;;;;5046470;28;20041;-77
2022/01/15 09:39:33;;;;;;;17.35;6.68;;;;;;;;;;5030070;28;20119;-77
2022/01/15 09:41:59;;;;;;;19.75;6.55;;;;;;;;;;5046215;28;20381;-78
2022/01/15 09:44:25;;;;;;;15.70;5.78;;;;;;;;;;5046645;28;20067;-77
2022/01/15 09:46:52;;;;;;;13.73;5.80;;;;;;;;;;5046178;28;20049;-78
2022/01/15 09:49:19;;;;;;;15.38;5.18;;;;;;;;;;5046222;28;20041;-77
2022/01/15 09:51:46;;;;;;;12.32;4.88;;;;;;;;;;5048362;28;20072;-77
2022/01/15 09:54:12;;;;;;;12.27;4.53;;;;;;;;;;5049667;28;20045;-78
2022/01/15 09:56:38;;;;;;;12.68;4.63;;;;;;;;;;5033186;28;20492;-78
2022/01/15 09:59:04;;;;;;;11.93;4.72;;;;;;;;;;5033239;28;20048;-78
2022/01/15 10:01:31;;;;;;;13.70;5.40;;;;;;;;;;5049800;28;20056;-77
2022/01/15 10:03:57;;;;;;;13.63;4.45;;;;;;;;;;5049850;28;20044;-77
2022/01/15 10:06:23;;;;;;;15.35;5.57;;;;;;;;;;5033050;28;20493;-77
2022/01/15 10:09:00;;;;;;;18.17;5.80;;;;;;;;;;5033002;28;20039;-77
2022/01/15 10:11:44;;;;;;;14.45;5.05;;;;;;;;;;5033150;28;20535;-77
2022/01/15 10:14:27;;;;;;;17.98;5.72;;;;;;;;;;5048912;28;20060;-77
2022/01/15 10:16:55;;;;;;;14.27;5.28;;;;;;;;;;5049673;28;20047;-78
2022/01/15 10:19:39;;;;;;;14.48;4.65;;;;;;;;;;5049772;28;20048;-78
2022/01/15 10:22:16;;;;;;;12.75;4.82;;;;;;;;;;5036376;28;20386;-78
2022/01/15 10:24:53;;;;;;;13.85;5.55;;;;;;;;;;5036500;28;20044;-78
2022/01/15 10:27:30;;;;;;;10.32;4.40;;;;;;;;;;5036446;28;20037;-78
2022/01/15 10:30:05;;;;;;;11.60;4.28;;;;;;;;;;5052899;28;20094;-79
2022/01/15 10:32:33;;;;;;;10.25;4.20;;;;;;;;;;5052947;28;20515;-78
2022/01/15 10:35:00;;;;;;;11.48;4.75;;;;;;;;;;5036460;28;20049;-78
2022/01/15 10:37:34;;;;;;;10.77;4.38;;;;;;;;;;5036523;28;20084;-78
2022/01/15 10:40:04;;;;;;;13.27;4.68;;;;;;;;;;5036431;28;20041;-77
2022/01/15 10:42:30;;;;;;;14.10;5.20;;;;;;;;;;5035951;28;20541;-79
2022/01/15 10:44:57;;;;;;;10.18;4.40;;;;;;;;;;5052529;28;20037;-78
2022/01/15 10:47:26;;;;;;;11.80;4.78;;;;;;;;;;5052634;28;20035;-77
2022/01/15 10:49:52;;;;;;;10.48;4.75;;;;;;;;;;5052918;28;20045;-77
2022/01/15 10:52:18;;;;;;;12.23;4.78;;;;;;;;;;5052931;28;20091;-77
2022/01/15 10:54:50;;;;;;;13.82;5.88;;;;;;;;;;5035950;28;20037;-78
2022/01/15 10:57:18;;;;;;;18.48;7.88;;;;;;;;;;5052839;28;20083;-79
2022/01/15 10:59:55;;;;;;;17.27;8.00;;;;;;;;;;5052210;28;20500;-78
2022/01/15 11:02:21;;;;;;;20.50;9.27;;;;;;;;;;5052386;28;20106;-78
2022/01/15 11:04:47;;;;;;;18.05;8.63;;;;;;;;;;5052571;28;20127;-79
2022/01/15 11:07:14;;;;;;;17.55;9.13;;;;;;;;;;5035555;28;20076;-78
2022/01/15 11:09:43;;;;;;;19.00;10.15;;;;;;;;;;5034070;28;20542;-78
2022/01/15 11:12:09;;;;;;;18.92;9.18;;;;;;;;;;5032351;28;20045;-79
2022/01/15 11:14:35;;;;;;;17.70;9.23;;;;;;;;;;5031669;28;20049;-77
2022/01/15 11:17:01;;;;;;;16.20;7.65;;;;;;;;;;5032305;28;20045;-77
2022/01/15 11:19:30;;;;;;;16.42;8.10;;;;;;;;;;5048594;28;20047;-79
2022/01/15 11:21:57;;;;;;;16.25;8.77;;;;;;;;;;5048733;28;20041;-77
2022/01/15 11:24:23;;;;;;;18.02;8.75;;;;;;;;;;5048429;28;20052;-78
2022/01/15 11:26:55;;;;;;;17.00;8.80;;;;;;;;;;5048086;28;20519;-79
2022/01/15 11:29:21;;;;;;;18.08;8.27;;;;;;;;;;5048509;28;20056;-79
2022/01/15 11:31:47;;;;;;;19.55;9.45;;;;;;;;;;5031622;28;20048;-78
2022/01/15 11:34:14;;;;;;;20.73;10.00;;;;;;;;;;5048375;28;20052;-78
2022/01/15 11:36:43;;;;;;;21.25;9.48;;;;;;;;;;5048155;28;20049;-78
2022/01/15 11:39:09;;;;;;;17.20;8.65;;;;;;;;;;5031603;28;20056;-78
2022/01/15 11:41:40;;;;;;;21.88;8.00;;;;;;;;;;5048128;28;20428;-79
2022/01/15 11:44:16;;;;;;;19.45;8.32;;;;;;;;;;5048587;28;20485;-78
2022/01/15 11:46:48;;;;;;;20.05;8.40;;;;;;;;;;5048005;28;20049;-78
2022/01/15 11:49:26;;;;;;;18.52;9.13;;;;;;;;;;5031416;28;20059;-78
2022/01/15 11:52:08;;;;;;;22.23;8.70;;;;;;;;;;5030989;28;20477;-77
2022/01/15 11:54:35;;;;;;;20.52;9.05;;;;;;;;;;5048169;28;20056;-79
2022/01/15 11:57:01;;;;;;;23.67;9.85;;;;;;;;;;5031319;28;20068;-78
2022/01/15 11:59:27;;;;;;;25.92;9.13;;;;;;;;;;5048001;28;20431;-79
2022/01/15 12:01:57;;;;;;;24.35;9.45;;;;;;;;;;5031206;28;20048;-78
2022/01/15 12:04:26;;;;;;;23.47;9.63;;;;;;;;;;5047445;28;20054;-78
2022/01/15 12:07:04;;;;;;;24.85;9.38;;;;;;;;;;5047524;28;20045;-77
2022/01/15 12:09:47;;;;;;;26.02;10.68;;;;;;;;;;5030965;28;20040;-78
2022/01/15 12:12:41;;;;;;;25.48;9.45;;;;;;;;;;5047909;28;20106;-78
2022/01/15 12:15:10;;;;;;;24.63;9.75;;;;;;;;;;5030475;28;20054;-79
2022/01/15 12:17:37;;;;;;;23.17;9.43;;;;;;;;;;5047702;28;20056;-79
2022/01/15 12:20:08;;;;;;;28.55;9.85;;;;;;;;;;5030949;28;20044;-78
2022/01/15 12:22:44;;;;;;;27.88;10.77;;;;;;;;;;5047439;28;20040;-78
2022/01/15 12:25:11;;;;;;;22.05;9.05;;;;;;;;;;5047325;28;20048;-78
2022/01/15 12:27:38;;;;;;;26.15;10.18;;;;;;;;;;5046833;28;20489;-78
2022/01/15 12:30:16;;;;;;;21.42;9.70;;;;;;;;;;5047402;28;20040;-78
2022/01/15 12:32:44;;;;;;;24.25;10.40;;;;;;;;;;5030637;28;20560;-77
2022/01/15 12:35:15;;;;;;;24.65;9.55;;;;;;;;;;5047369;28;20045;-78
2022/01/15 12:37:59;;;;;;;20.67;8.25;;;;;;;;;;5047146;28;20056;-78
2022/01/15 12:40:29;;;;;;;21.10;8.77;;;;;;;;;;5030047;28;20080;-78
2022/01/15 12:42:56;;;;;;;23.13;9.05;;;;;;;;;;5046533;28;20040;-78
2022/01/15 12:45:22;;;;;;;21.83;9.57;;;;;;;;;;5030443;28;20082;-78
2022/01/15 12:47:48;;;;;;;24.40;9.80;;;;;;;;;;5047072;28;20048;-78
2022/01/15 12:50:14;;;;;;;21.17;9.48;;;;;;;;;;5029781;28;20048;-78
2022/01/15 12:52:40;;;;;;;22.55;9.35;;;;;;;;;;5046931;28;20037;-79
2022/01/15 12:55:07;;;;;;;21.85;8.65;;;;;;;;;;5047030;28;20102;-78
2022/01/15 12:57:43;;;;;;;20.25;7.72;;;;;;;;;;5030350;28;20049;-78
2022/01/15 13:00:11;;;;;;;20.15;8.98;;;;;;;;;;5046885;28;20057;-78
2022/01/15 13:02:38;;;;;;;17.42;7.93;;;;;;;;;;5029988;28;20045;-78
2022/01/15 13:05:05;;;;;;;19.20;9.10;;;;;;;;;;5030120;28;20037;-78
2022/01/15 13:07:50;;;;;;;18.23;7.38;;;;;;;;;;5046645;28;20044;-76
2022/01/15 13:10:26;;;;;;;21.85;8.60;;;;;;;;;;5046701;28;20045;-79
2022/01/15 13:12:54;;;;;;;21.10;8.75;;;;;;;;;;5046639;28;20412;-78
2022/01/15 13:15:24;;;;;;;20.33;8.57;;;;;;;;;;5029534;28;20045;-78
2022/01/15 13:17:51;;;;;;;20.17;8.00;;;;;;;;;;5046749;28;20048;-78
2022/01/15 13:20:28;;;;;;;20.52;8.88;;;;;;;;;;5046791;28;20047;-77
2022/01/15 13:22:54;;;;;;;22.23;8.32;;;;;;;;;;5046603;28;20122;-77
2022/01/15 13:25:24;;;;;;;22.40;8.68;;;;;;;;;;5046460;28;20087;-78
2022/01/15 13:27:51;;;;;;;20.55;8.65;;;;;;;;;;5046020;28;20045;-77
2022/01/15 13:30:18;;;;;;;21.45;9.13;;;;;;;;;;5046428;28;20037;-78
2022/01/15 13:33:11;;;;;;;25.20;9.88;;;;;;;;;;5029792;28;20122;-78
2022/01/15 13:35:38;;;;;;;20.70;9.02;;;;;;;;;;5043325;28;20106;-77
2022/01/15 13:38:06;;;;;;;23.05;10.52;;;;;;;;;;5029849;28;20044;-77
2022/01/15 13:40:41;;;;;;;20.45;9.02;;;;;;;;;;5029604;28;20516;-77
2022/01/15 13:43:08;;;;;;;22.50;8.90;;;;;;;;;;5046076;28;20446;-78
2022/01/15 13:45:36;;;;;;;23.27;9.88;;;;;;;;;;5046527;28;20040;-78
2022/01/15 13:48:09;;;;;;;17.52;8.55;;;;;;;;;;5029751;28;20060;-78
2022/01/15 13:53:30;;;;;;;21.45;9.98;;;;;;;;;;5046205;28;20055;-77
2022/01/15 13:56:09;;;;;;;21.35;9.95;;;;;;;;;;5049975;28;20064;-77
2022/01/15 13:58:35;;;;;;;22.20;9.50;;;;;;;;;;5033557;28;20036;-77
2022/01/15 14:01:21;;;;;;;23.55;9.85;;;;;;;;;;5049835;28;20114;-78
2022/01/15 14:03:47;;;;;;;21.20;9.77;;;;;;;;;;5049641;28;20053;-78
2022/01/15 14:06:13;;;;;;;20.50;9.35;;;;;;;;;;5049974;28;20037;-77
2022/01/15 14:08:39;;;;;;;18.63;8.23;;;;;;;;;;5050896;28;20447;-77
2022/01/15 14:11:13;;;;;;;19.65;9.05;;;;;;;;;;5034474;28;20049;-76
2022/01/15 14:13:39;;;;;;;18.15;9.00;;;;;;;;;;5050910;28;20606;-76
2022/01/15 14:16:21;;;;;;;18.85;8.93;;;;;;;;;;5032895;28;20088;-78
2022/01/15 14:18:54;;;;;;;18.65;7.82;;;;;;;;;;5033315;28;20056;-77
2022/01/15 14:21:40;;;;;;;13.85;5.47;;;;;;;;;;5033153;28;20041;-77
2022/01/15 14:24:16;;;;;;;15.50;8.60;;;;;;;;;;5049364;28;20094;-77
2022/01/15 14:26:46;;;;;;;16.38;7.80;;;;;;;;;;5048961;28;20443;-78
2022/01/15 14:29:12;;;;;;;19.50;9.40;;;;;;;;;;5050097;28;20053;-78
2022/01/15 14:31:38;;;;;;;22.55;10.23;;;;;;;;;;5033081;28;20114;-77
2022/01/15 14:34:05;;;;;;;17.70;8.65;;;;;;;;;;5032840;28;20041;-78
2022/01/15 14:36:31;;;;;;;22.13;8.82;;;;;;;;;;5033113;28;20057;-77
2022/01/15 14:39:04;;;;;;;17.65;8.07;;;;;;;;;;5049080;28;20055;-77
2022/01/15 14:41:30;;;;;;;20.02;9.07;;;;;;;;;;5049491;28;20053;-77
2022/01/15 14:43:56;;;;;;;18.50;9.75;;;;;;;;;;5049405;28;20067;-77
2022/01/15 14:46:22;;;;;;;21.90;8.77;;;;;;;;;;5049196;28;20056;-77
2022/01/15 14:48:48;;;;;;;18.63;8.88;;;;;;;;;;5049155;28;20044;-77
2022/01/15 14:51:16;;;;;;;19.33;8.40;;;;;;;;;;5048953;28;20397;-78
2022/01/15 14:53:43;;;;;;;20.13;9.32;;;;;;;;;;5049063;28;20052;-78
2022/01/15 14:56:09;;;;;;;20.90;9.23;;;;;;;;;;5049112;28;20037;-78
2022/01/15 14:58:35;;;;;;;22.85;10.02;;;;;;;;;;5029610;28;20063;-77
2022/01/15 15:01:01;;;;;;;22.63;10.43;;;;;;;;;;5030907;28;20455;-78